This is the latest recevied weather packets stored in our database for station/object N8HKU-5. If no packets are shown the sender has not sent any weather packets the latest 1 day(s).
| Time | Temp. | Humidity | Pressure | Rain* | Wind** | Luminosity | Snow |
|---|---|---|---|---|---|---|---|
| 1778076154 | 10.56° C | 50% | 1009.4 hPa | 0 mm | - | - | - |
| 1778074354 | 10° C | 57% | 1009.2 hPa | 0 mm | - | - | - |
| 1778070754 | 8.33° C | 64% | 1008.5 hPa | 0 mm | - | - | - |
| 1778070154 | 7.78° C | 66% | 1008.3 hPa | 0 mm | - | - | - |
| 1778069554 | 7.22° C | 68% | 1008.1 hPa | 0 mm | - | - | - |
| 1778068354 | 7.22° C | 66% | 1008.1 hPa | 0 mm | - | - | - |
| 1778067754 | 7.22° C | 66% | 1007.9 hPa | 0 mm | - | - | - |
| 1778067154 | 6.67° C | 66% | 1007.9 hPa | 0 mm | - | - | - |
| 1778065954 | 6.67° C | 66% | 1007.7 hPa | 0 mm | - | - | - |
| 1778065354 | 6.67° C | 65% | 1007.4 hPa | 0 mm | - | - | - |
| 1778064155 | 7.22° C | 64% | 1007.2 hPa | 0 mm | - | - | - |
| 1778063557 | 7.78° C | 64% | 1007 hPa | 0 mm | - | - | - |
| 1778062954 | 7.78° C | 65% | 1006.9 hPa | 0 mm | - | - | - |
| 1778062355 | 7.78° C | 64% | 1006.9 hPa | 0 mm | - | - | - |
| 1778061754 | 7.78° C | 65% | 1006.7 hPa | 0 mm | - | - | - |
| 1778061154 | 7.78° C | 65% | 1006.7 hPa | 0 mm | - | - | - |
| 1778060554 | 7.78° C | 64% | 1006.8 hPa | 0 mm | - | - | - |
| 1778059954 | 7.78° C | 64% | 1006.7 hPa | 0 mm | - | - | - |
| 1778058754 | 7.78° C | 64% | 1006.6 hPa | 0 mm | - | - | - |
| 1778058154 | 7.78° C | 64% | 1006.5 hPa | 0 mm | - | - | - |
| 1778057555 | 7.78° C | 64% | 1006.2 hPa | 0 mm | - | - | - |
| 1778056355 | 7.78° C | 64% | 1006.4 hPa | 0 mm | - | - | - |
| 1778055754 | 8.33° C | 64% | 1006.3 hPa | 0 mm | - | - | - |
| 1778055154 | 8.33° C | 64% | 1006.2 hPa | 0 mm | - | - | - |
| 1778053354 | 8.33° C | 66% | 1006.1 hPa | 0 mm | - | - | - |
* Rain latest hour (hover to see other rain measurements)
** Current wind speed in m/s (hover to see current wind gust speed)